Boulder, CO

6:54 PM MDT on September 03, 2015 (GMT -0600)
INTERNET | | Change Station
CLOSE
Current Station
Personal Weather Station
Location: Boulder, CO
Elevation: 6184 ft
Nearby Weather Stations

Elev 6184 ft 39.98 °N, 105.28 °W | Updated 1 day ago

Cloudy
Cloudy
65 °F
Feels Like 65 °F
N
9
Wind Variable Wind from WSW
Gusts 13 mph

Today
High -- | Low -- °F
--% Chance of Precip.
Yesterday
High -- | Low -- °F
Precip. -- in
6:30 AM 7:29 PM
Waning Gibbous, 65% visible
Pressure 30.01 in
Visibility 10.0 miles
Clouds Scattered Clouds 8500 ft
Overcast 11000 ft
Dew Point 52 °F
Humidity 64%
Rainfall in
Snow Depth Not available.
UV 0 out of 12
Pollen 10.20 out of 12
Air Quality Not available.
Flu Activity Not available.
METAR KBDU 040034Z AUTO 15003KT 10SM SCT085 OVC110 19/15 A3001 RMK AO2
Pressure 30.01 in
Visibility 10.0 miles
Clouds Scattered Clouds 8500 ft
Overcast 11000 ft
Dew Point 52 °F
Humidity 64%
Rainfall in
Snow Depth Not available.
UV 0 out of 12
Pollen 10.20 out of 12
Air Quality Not available.
Flu Activity Not available.
METAR KBDU 040034Z AUTO 15003KT 10SM SCT085 OVC110 19/15 A3001 RMK AO2

10-Day Weather Forecast

×

Almanac

Astronomy

Sep. 03, 2015 Rise Set
Actual Time
Civil Twilight
Nautical Twilight
Astronomical Twilight
Moon
Length of Visible Light
Length of Day
Tomorrow will be .
, % of the Moon is Illuminated

Today's Extremes

State Highs State Lows

Community

WunderPhotos

Upload Photos

1,852,075 photos uploaded!

WunderBlogs® & News

Nearby

Air Quality

  Air Quality AQ Index Pollutant
Not available.

Snow Depth

Station Depth Elevation

Earthquake Activity

City Distance Mag. Time & Date
Minimum magnitude displayed is 2.5.

Coastal Water Temperatures

Place Temperature

Stations

Nearby Weather Stations

Station Location Temp. Windchill Dew Point Humidity Wind Precip. Elev Updated Type